sensor_id;sensor_type;location;lat;lon;timestamp;temperature;humidity
12115;DHT22;6121;49.810;6.418;2022-09-09T00:04:34;16.70;99.90
12115;DHT22;6121;49.810;6.418;2022-09-09T00:12:47;16.70;99.90
12115;DHT22;6121;49.810;6.418;2022-09-09T00:15:25;16.70;99.90
12115;DHT22;6121;49.810;6.418;2022-09-09T00:18:00;16.60;99.90
12115;DHT22;6121;49.810;6.418;2022-09-09T00:20:32;16.60;99.90
12115;DHT22;6121;49.810;6.418;2022-09-09T00:23:12;16.70;99.90
12115;DHT22;6121;49.810;6.418;2022-09-09T00:26:23;16.70;99.90
12115;DHT22;6121;49.810;6.418;2022-09-09T00:31:35;16.70;99.90
12115;DHT22;6121;49.810;6.418;2022-09-09T00:34:13;16.70;99.90
12115;DHT22;6121;49.810;6.418;2022-09-09T00:36:41;16.60;99.90
12115;DHT22;6121;49.810;6.418;2022-09-09T00:39:13;16.70;99.90
12115;DHT22;6121;49.810;6.418;2022-09-09T00:44:31;16.70;99.90
12115;DHT22;6121;49.810;6.418;2022-09-09T00:56:12;16.40;99.90
12115;DHT22;6121;49.810;6.418;2022-09-09T00:58:43;16.50;99.90
12115;DHT22;6121;49.810;6.418;2022-09-09T01:01:13;16.40;99.90
12115;DHT22;6121;49.810;6.418;2022-09-09T01:03:49;16.30;99.90
12115;DHT22;6121;49.810;6.418;2022-09-09T01:06:33;16.40;99.90
12115;DHT22;6121;49.810;6.418;2022-09-09T01:12:16;16.40;99.90
12115;DHT22;6121;49.810;6.418;2022-09-09T01:14:49;16.50;99.90
12115;DHT22;6121;49.810;6.418;2022-09-09T01:23:15;16.50;99.90
12115;DHT22;6121;49.810;6.418;2022-09-09T01:28:19;16.40;99.90
12115;DHT22;6121;49.810;6.418;2022-09-09T01:30:47;16.50;99.90
12115;DHT22;6121;49.810;6.418;2022-09-09T01:33:17;16.40;99.90
12115;DHT22;6121;49.810;6.418;2022-09-09T01:35:51;16.40;99.90
12115;DHT22;6121;49.810;6.418;2022-09-09T01:38:20;16.50;99.90
12115;DHT22;6121;49.810;6.418;2022-09-09T01:40:45;16.60;99.90
12115;DHT22;6121;49.810;6.418;2022-09-09T01:43:11;16.60;99.90
12115;DHT22;6121;49.810;6.418;2022-09-09T01:45:38;16.70;99.90
12115;DHT22;6121;49.810;6.418;2022-09-09T01:48:04;16.60;99.90
12115;DHT22;6121;49.810;6.418;2022-09-09T01:50:30;16.70;99.90
12115;DHT22;6121;49.810;6.418;2022-09-09T01:52:59;16.60;99.90
12115;DHT22;6121;49.810;6.418;2022-09-09T01:55:31;16.40;99.90
12115;DHT22;6121;49.810;6.418;2022-09-09T02:00:30;16.50;99.90
12115;DHT22;6121;49.810;6.418;2022-09-09T02:03:25;16.40;99.90
12115;DHT22;6121;49.810;6.418;2022-09-09T02:08:49;16.50;99.90
12115;DHT22;6121;49.810;6.418;2022-09-09T02:13:44;16.60;99.90
12115;DHT22;6121;49.810;6.418;2022-09-09T02:16:22;16.60;99.90
12115;DHT22;6121;49.810;6.418;2022-09-09T02:19:06;16.60;99.90
12115;DHT22;6121;49.810;6.418;2022-09-09T02:21:33;16.60;99.90
12115;DHT22;6121;49.810;6.418;2022-09-09T02:24:05;16.50;99.90
12115;DHT22;6121;49.810;6.418;2022-09-09T02:26:40;16.50;99.90
12115;DHT22;6121;49.810;6.418;2022-09-09T02:29:31;16.50;99.90
12115;DHT22;6121;49.810;6.418;2022-09-09T02:32:01;16.50;99.90
12115;DHT22;6121;49.810;6.418;2022-09-09T02:34:29;16.50;99.90
12115;DHT22;6121;49.810;6.418;2022-09-09T02:36:57;16.60;99.90
12115;DHT22;6121;49.810;6.418;2022-09-09T02:39:25;16.60;99.90
12115;DHT22;6121;49.810;6.418;2022-09-09T02:41:51;16.70;99.90
12115;DHT22;6121;49.810;6.418;2022-09-09T02:44:18;16.70;99.90
12115;DHT22;6121;49.810;6.418;2022-09-09T02:52:15;16.80;99.90
12115;DHT22;6121;49.810;6.418;2022-09-09T02:54:44;16.80;99.90
12115;DHT22;6121;49.810;6.418;2022-09-09T02:57:23;16.60;99.90
12115;DHT22;6121;49.810;6.418;2022-09-09T02:59:50;16.70;99.90
12115;DHT22;6121;49.810;6.418;2022-09-09T03:02:18;16.70;99.90
12115;DHT22;6121;49.810;6.418;2022-09-09T03:04:44;16.80;99.90
12115;DHT22;6121;49.810;6.418;2022-09-09T03:07:10;16.70;99.90
12115;DHT22;6121;49.810;6.418;2022-09-09T03:09:36;16.70;99.90
12115;DHT22;6121;49.810;6.418;2022-09-09T03:12:02;16.80;99.90
12115;DHT22;6121;49.810;6.418;2022-09-09T03:14:29;16.80;99.90
12115;DHT22;6121;49.810;6.418;2022-09-09T03:16:56;16.80;99.90
12115;DHT22;6121;49.810;6.418;2022-09-09T03:19:23;16.80;99.90
12115;DHT22;6121;49.810;6.418;2022-09-09T03:21:49;16.80;99.90
12115;DHT22;6121;49.810;6.418;2022-09-09T03:24:15;16.70;99.90
12115;DHT22;6121;49.810;6.418;2022-09-09T03:26:41;16.90;99.90
12115;DHT22;6121;49.810;6.418;2022-09-09T03:29:10;16.80;99.90
12115;DHT22;6121;49.810;6.418;2022-09-09T03:31:38;16.90;99.90
12115;DHT22;6121;49.810;6.418;2022-09-09T03:34:04;16.80;99.90
12115;DHT22;6121;49.810;6.418;2022-09-09T03:36:30;16.80;99.90
12115;DHT22;6121;49.810;6.418;2022-09-09T03:38:56;16.90;99.90
12115;DHT22;6121;49.810;6.418;2022-09-09T03:41:23;16.80;99.90
12115;DHT22;6121;49.810;6.418;2022-09-09T03:43:53;16.80;99.90
12115;DHT22;6121;49.810;6.418;2022-09-09T03:46:20;16.80;99.90
12115;DHT22;6121;49.810;6.418;2022-09-09T03:48:46;16.80;99.90
12115;DHT22;6121;49.810;6.418;2022-09-09T03:51:12;16.90;99.90
12115;DHT22;6121;49.810;6.418;2022-09-09T03:53:37;16.90;99.90
12115;DHT22;6121;49.810;6.418;2022-09-09T03:56:04;16.80;99.90
12115;DHT22;6121;49.810;6.418;2022-09-09T03:58:33;16.90;99.90
12115;DHT22;6121;49.810;6.418;2022-09-09T04:01:08;16.90;99.90
12115;DHT22;6121;49.810;6.418;2022-09-09T04:03:34;16.80;99.90
12115;DHT22;6121;49.810;6.418;2022-09-09T04:06:01;16.80;99.90
12115;DHT22;6121;49.810;6.418;2022-09-09T04:08:27;17.00;99.90
12115;DHT22;6121;49.810;6.418;2022-09-09T04:10:53;16.90;99.90
12115;DHT22;6121;49.810;6.418;2022-09-09T04:13:20;17.00;99.90
12115;DHT22;6121;49.810;6.418;2022-09-09T04:15:53;17.00;99.90
12115;DHT22;6121;49.810;6.418;2022-09-09T04:18:20;17.00;99.90
12115;DHT22;6121;49.810;6.418;2022-09-09T04:20:50;16.90;99.90
12115;DHT22;6121;49.810;6.418;2022-09-09T04:23:17;16.90;99.90
12115;DHT22;6121;49.810;6.418;2022-09-09T04:25:48;16.90;99.90
12115;DHT22;6121;49.810;6.418;2022-09-09T04:28:19;17.00;99.90
12115;DHT22;6121;49.810;6.418;2022-09-09T04:30:45;17.10;99.90
12115;DHT22;6121;49.810;6.418;2022-09-09T04:33:12;17.10;99.90
12115;DHT22;6121;49.810;6.418;2022-09-09T04:35:39;17.00;99.90
12115;DHT22;6121;49.810;6.418;2022-09-09T04:38:05;17.00;99.90
12115;DHT22;6121;49.810;6.418;2022-09-09T04:40:35;17.10;99.90
12115;DHT22;6121;49.810;6.418;2022-09-09T04:43:01;17.10;99.90
12115;DHT22;6121;49.810;6.418;2022-09-09T04:45:29;17.20;99.90
12115;DHT22;6121;49.810;6.418;2022-09-09T04:47:54;17.10;99.90
12115;DHT22;6121;49.810;6.418;2022-09-09T04:50:20;17.00;99.90
12115;DHT22;6121;49.810;6.418;2022-09-09T04:52:46;17.00;99.90
12115;DHT22;6121;49.810;6.418;2022-09-09T04:55:11;17.10;99.90
12115;DHT22;6121;49.810;6.418;2022-09-09T04:57:39;17.10;99.90
12115;DHT22;6121;49.810;6.418;2022-09-09T05:00:05;17.10;99.90
12115;DHT22;6121;49.810;6.418;2022-09-09T05:02:30;17.20;99.90
12115;DHT22;6121;49.810;6.418;2022-09-09T05:04:57;17.20;99.90
12115;DHT22;6121;49.810;6.418;2022-09-09T05:07:23;17.20;99.90
12115;DHT22;6121;49.810;6.418;2022-09-09T05:09:49;17.20;99.90
12115;DHT22;6121;49.810;6.418;2022-09-09T05:12:15;17.20;99.90
12115;DHT22;6121;49.810;6.418;2022-09-09T05:14:42;17.20;99.90
12115;DHT22;6121;49.810;6.418;2022-09-09T05:17:08;17.20;99.90
12115;DHT22;6121;49.810;6.418;2022-09-09T05:19:33;17.10;99.90
12115;DHT22;6121;49.810;6.418;2022-09-09T05:21:59;17.00;99.90
12115;DHT22;6121;49.810;6.418;2022-09-09T05:24:26;17.00;99.90
12115;DHT22;6121;49.810;6.418;2022-09-09T05:26:52;17.00;99.90
12115;DHT22;6121;49.810;6.418;2022-09-09T05:29:17;17.10;99.90
12115;DHT22;6121;49.810;6.418;2022-09-09T05:31:45;17.00;99.90
12115;DHT22;6121;49.810;6.418;2022-09-09T05:34:11;17.10;99.90
12115;DHT22;6121;49.810;6.418;2022-09-09T05:36:36;17.10;99.90
12115;DHT22;6121;49.810;6.418;2022-09-09T05:39:03;17.20;99.90
12115;DHT22;6121;49.810;6.418;2022-09-09T05:41:29;17.20;99.90
12115;DHT22;6121;49.810;6.418;2022-09-09T05:43:55;17.30;99.90
12115;DHT22;6121;49.810;6.418;2022-09-09T05:46:22;17.30;99.90
12115;DHT22;6121;49.810;6.418;2022-09-09T05:48:49;17.20;99.90
12115;DHT22;6121;49.810;6.418;2022-09-09T05:51:24;17.30;99.90
12115;DHT22;6121;49.810;6.418;2022-09-09T05:53:52;17.30;99.90
12115;DHT22;6121;49.810;6.418;2022-09-09T05:56:20;17.30;99.90
12115;DHT22;6121;49.810;6.418;2022-09-09T05:58:47;17.30;99.90
12115;DHT22;6121;49.810;6.418;2022-09-09T06:01:18;17.40;99.90
12115;DHT22;6121;49.810;6.418;2022-09-09T06:03:45;17.40;99.90
12115;DHT22;6121;49.810;6.418;2022-09-09T06:06:16;17.30;99.90
12115;DHT22;6121;49.810;6.418;2022-09-09T06:08:44;17.50;99.90
12115;DHT22;6121;49.810;6.418;2022-09-09T06:11:18;17.50;99.90
12115;DHT22;6121;49.810;6.418;2022-09-09T06:13:44;17.60;99.90
12115;DHT22;6121;49.810;6.418;2022-09-09T06:16:11;17.60;99.90
12115;DHT22;6121;49.810;6.418;2022-09-09T06:18:38;17.70;99.90
12115;DHT22;6121;49.810;6.418;2022-09-09T06:21:06;17.80;99.90
12115;DHT22;6121;49.810;6.418;2022-09-09T06:23:33;17.80;99.90
12115;DHT22;6121;49.810;6.418;2022-09-09T06:26:07;17.70;99.90
12115;DHT22;6121;49.810;6.418;2022-09-09T06:28:33;17.60;99.90
12115;DHT22;6121;49.810;6.418;2022-09-09T06:31:00;17.50;99.90
12115;DHT22;6121;49.810;6.418;2022-09-09T06:33:26;17.40;99.90
12115;DHT22;6121;49.810;6.418;2022-09-09T06:35:53;17.50;99.90
12115;DHT22;6121;49.810;6.418;2022-09-09T06:38:20;17.60;99.90
12115;DHT22;6121;49.810;6.418;2022-09-09T06:40:58;17.70;99.90
12115;DHT22;6121;49.810;6.418;2022-09-09T06:43:25;17.80;99.90
12115;DHT22;6121;49.810;6.418;2022-09-09T06:45:59;17.80;99.90
12115;DHT22;6121;49.810;6.418;2022-09-09T06:48:25;17.70;99.90
12115;DHT22;6121;49.810;6.418;2022-09-09T06:51:00;17.80;99.90
12115;DHT22;6121;49.810;6.418;2022-09-09T06:53:28;18.10;99.90
12115;DHT22;6121;49.810;6.418;2022-09-09T06:55:53;18.40;99.90
12115;DHT22;6121;49.810;6.418;2022-09-09T06:58:20;18.50;99.90
12115;DHT22;6121;49.810;6.418;2022-09-09T07:00:47;18.60;99.90
12115;DHT22;6121;49.810;6.418;2022-09-09T07:03:13;18.50;99.90
12115;DHT22;6121;49.810;6.418;2022-09-09T07:05:38;18.50;99.90
12115;DHT22;6121;49.810;6.418;2022-09-09T07:08:04;18.60;99.90
12115;DHT22;6121;49.810;6.418;2022-09-09T07:10:30;18.60;99.90
12115;DHT22;6121;49.810;6.418;2022-09-09T07:12:56;18.50;99.90
12115;DHT22;6121;49.810;6.418;2022-09-09T07:15:22;18.70;99.90
12115;DHT22;6121;49.810;6.418;2022-09-09T07:17:49;18.60;99.90
12115;DHT22;6121;49.810;6.418;2022-09-09T07:20:15;18.60;99.90
12115;DHT22;6121;49.810;6.418;2022-09-09T07:22:41;18.50;99.90
12115;DHT22;6121;49.810;6.418;2022-09-09T07:25:07;18.50;99.90
12115;DHT22;6121;49.810;6.418;2022-09-09T07:27:33;18.70;99.90
12115;DHT22;6121;49.810;6.418;2022-09-09T07:29:58;18.80;99.90
12115;DHT22;6121;49.810;6.418;2022-09-09T07:32:24;18.90;99.90
12115;DHT22;6121;49.810;6.418;2022-09-09T07:34:51;18.90;99.90
12115;DHT22;6121;49.810;6.418;2022-09-09T07:37:16;19.00;99.90
12115;DHT22;6121;49.810;6.418;2022-09-09T07:39:43;19.10;99.90
12115;DHT22;6121;49.810;6.418;2022-09-09T07:42:09;19.00;99.90
12115;DHT22;6121;49.810;6.418;2022-09-09T07:44:37;18.90;99.90
12115;DHT22;6121;49.810;6.418;2022-09-09T07:47:05;19.00;99.90
12115;DHT22;6121;49.810;6.418;2022-09-09T07:49:31;19.10;99.90
12115;DHT22;6121;49.810;6.418;2022-09-09T07:51:57;19.20;99.90
12115;DHT22;6121;49.810;6.418;2022-09-09T07:54:23;19.10;99.90
12115;DHT22;6121;49.810;6.418;2022-09-09T07:56:49;19.20;99.90
12115;DHT22;6121;49.810;6.418;2022-09-09T07:59:16;19.30;99.90
12115;DHT22;6121;49.810;6.418;2022-09-09T08:01:47;19.20;99.90
12115;DHT22;6121;49.810;6.418;2022-09-09T08:04:16;19.30;99.90
12115;DHT22;6121;49.810;6.418;2022-09-09T08:07:05;19.20;99.90
12115;DHT22;6121;49.810;6.418;2022-09-09T08:09:30;19.20;99.90
12115;DHT22;6121;49.810;6.418;2022-09-09T08:11:58;19.50;99.90
12115;DHT22;6121;49.810;6.418;2022-09-09T08:14:23;19.60;99.90
12115;DHT22;6121;49.810;6.418;2022-09-09T08:16:50;19.50;99.90
12115;DHT22;6121;49.810;6.418;2022-09-09T08:19:16;19.40;99.90
12115;DHT22;6121;49.810;6.418;2022-09-09T08:21:43;19.40;99.90
12115;DHT22;6121;49.810;6.418;2022-09-09T08:24:10;19.30;99.90
12115;DHT22;6121;49.810;6.418;2022-09-09T08:26:44;19.20;99.90
12115;DHT22;6121;49.810;6.418;2022-09-09T08:29:11;19.10;99.90
12115;DHT22;6121;49.810;6.418;2022-09-09T08:31:42;19.10;99.90
12115;DHT22;6121;49.810;6.418;2022-09-09T08:34:08;19.10;99.90
12115;DHT22;6121;49.810;6.418;2022-09-09T08:36:39;19.10;99.90
12115;DHT22;6121;49.810;6.418;2022-09-09T08:39:07;19.10;99.90
12115;DHT22;6121;49.810;6.418;2022-09-09T08:55:33;18.80;99.90
12115;DHT22;6121;49.810;6.418;2022-09-09T08:58:15;18.80;99.90
12115;DHT22;6121;49.810;6.418;2022-09-09T09:03:56;19.20;99.90
12115;DHT22;6121;49.810;6.418;2022-09-09T09:09:11;19.80;99.90
12115;DHT22;6121;49.810;6.418;2022-09-09T09:11:59;19.70;99.90
12115;DHT22;6121;49.810;6.418;2022-09-09T09:14:31;19.60;99.90
12115;DHT22;6121;49.810;6.418;2022-09-09T09:17:19;19.50;99.90
12115;DHT22;6121;49.810;6.418;2022-09-09T09:19:47;19.50;99.90
12115;DHT22;6121;49.810;6.418;2022-09-09T09:22:20;19.60;99.90
12115;DHT22;6121;49.810;6.418;2022-09-09T09:25:05;20.40;99.90
12115;DHT22;6121;49.810;6.418;2022-09-09T09:30:41;21.60;99.90
12115;DHT22;6121;49.810;6.418;2022-09-09T09:33:47;21.50;99.90
12115;DHT22;6121;49.810;6.418;2022-09-09T09:36:15;21.50;99.90
12115;DHT22;6121;49.810;6.418;2022-09-09T09:38:55;21.90;99.90
12115;DHT22;6121;49.810;6.418;2022-09-09T09:41:37;22.50;99.90
12115;DHT22;6121;49.810;6.418;2022-09-09T09:44:04;23.10;99.90
12115;DHT22;6121;49.810;6.418;2022-09-09T09:46:31;23.50;99.90
12115;DHT22;6121;49.810;6.418;2022-09-09T09:49:04;23.80;99.90
12115;DHT22;6121;49.810;6.418;2022-09-09T09:51:32;23.70;99.90
12115;DHT22;6121;49.810;6.418;2022-09-09T09:54:34;24.20;99.90
12115;DHT22;6121;49.810;6.418;2022-09-09T09:57:13;23.90;99.20
12115;DHT22;6121;49.810;6.418;2022-09-09T09:59:40;23.30;99.20
12115;DHT22;6121;49.810;6.418;2022-09-09T10:04:40;22.70;99.90
12115;DHT22;6121;49.810;6.418;2022-09-09T10:07:32;22.50;99.90
12115;DHT22;6121;49.810;6.418;2022-09-09T10:09:59;22.40;99.90
12115;DHT22;6121;49.810;6.418;2022-09-09T10:18:16;23.60;97.90
12115;DHT22;6121;49.810;6.418;2022-09-09T10:20:55;22.80;98.80
12115;DHT22;6121;49.810;6.418;2022-09-09T10:29:18;21.60;99.90
12115;DHT22;6121;49.810;6.418;2022-09-09T10:40:11;25.70;95.60
12115;DHT22;6121;49.810;6.418;2022-09-09T10:42:41;25.90;95.10
12115;DHT22;6121;49.810;6.418;2022-09-09T10:45:38;25.80;94.50
12115;DHT22;6121;49.810;6.418;2022-09-09T10:48:28;25.40;94.80
12115;DHT22;6121;49.810;6.418;2022-09-09T10:51:18;24.40;95.00
12115;DHT22;6121;49.810;6.418;2022-09-09T10:56:31;32.90;90.70
12115;DHT22;6121;49.810;6.418;2022-09-09T10:59:16;41.60;63.40
12115;DHT22;6121;49.810;6.418;2022-09-09T11:01:46;45.30;47.60
12115;DHT22;6121;49.810;6.418;2022-09-09T11:04:21;42.20;42.10
12115;DHT22;6121;49.810;6.418;2022-09-09T11:06:54;35.60;47.90
12115;DHT22;6121;49.810;6.418;2022-09-09T11:09:26;32.30;53.80
12115;DHT22;6121;49.810;6.418;2022-09-09T11:11:57;29.60;58.10
12115;DHT22;6121;49.810;6.418;2022-09-09T11:14:32;28.60;62.20
12115;DHT22;6121;49.810;6.418;2022-09-09T11:17:06;28.60;62.70
12115;DHT22;6121;49.810;6.418;2022-09-09T11:19:42;30.10;61.00
12115;DHT22;6121;49.810;6.418;2022-09-09T11:27:58;28.30;64.90
12115;DHT22;6121;49.810;6.418;2022-09-09T11:33:37;26.30;66.90
12115;DHT22;6121;49.810;6.418;2022-09-09T11:36:35;25.50;69.50
12115;DHT22;6121;49.810;6.418;2022-09-09T11:44:33;24.20;73.20
12115;DHT22;6121;49.810;6.418;2022-09-09T11:46:59;23.70;74.70
12115;DHT22;6121;49.810;6.418;2022-09-09T11:49:38;23.50;75.80
12115;DHT22;6121;49.810;6.418;2022-09-09T11:52:47;23.30;77.20
12115;DHT22;6121;49.810;6.418;2022-09-09T11:55:31;23.30;77.70
12115;DHT22;6121;49.810;6.418;2022-09-09T11:58:03;23.50;79.20
12115;DHT22;6121;49.810;6.418;2022-09-09T12:00:40;23.80;79.80
12115;DHT22;6121;49.810;6.418;2022-09-09T12:05:58;24.40;80.50
12115;DHT22;6121;49.810;6.418;2022-09-09T12:08:27;24.30;80.40
12115;DHT22;6121;49.810;6.418;2022-09-09T12:10:58;24.60;80.50
12115;DHT22;6121;49.810;6.418;2022-09-09T12:13:26;24.70;80.40
12115;DHT22;6121;49.810;6.418;2022-09-09T12:15:57;25.10;81.00
12115;DHT22;6121;49.810;6.418;2022-09-09T12:18:25;25.30;79.40
12115;DHT22;6121;49.810;6.418;2022-09-09T12:21:19;25.30;78.80
12115;DHT22;6121;49.810;6.418;2022-09-09T12:23:55;25.40;78.10
12115;DHT22;6121;49.810;6.418;2022-09-09T12:26:58;25.40;76.30
12115;DHT22;6121;49.810;6.418;2022-09-09T12:29:50;25.30;77.60
12115;DHT22;6121;49.810;6.418;2022-09-09T12:32:24;25.30;78.10
12115;DHT22;6121;49.810;6.418;2022-09-09T12:40:05;24.70;78.30
12115;DHT22;6121;49.810;6.418;2022-09-09T12:42:31;24.60;78.80
12115;DHT22;6121;49.810;6.418;2022-09-09T12:45:03;24.50;79.90
12115;DHT22;6121;49.810;6.418;2022-09-09T12:47:44;24.20;83.60
12115;DHT22;6121;49.810;6.418;2022-09-09T12:50:22;24.10;85.20
12115;DHT22;6121;49.810;6.418;2022-09-09T12:52:51;23.90;86.00
12115;DHT22;6121;49.810;6.418;2022-09-09T12:55:21;24.00;86.70
12115;DHT22;6121;49.810;6.418;2022-09-09T12:57:51;23.70;87.00
12115;DHT22;6121;49.810;6.418;2022-09-09T13:00:24;23.20;90.50
12115;DHT22;6121;49.810;6.418;2022-09-09T13:02:58;22.80;92.50
12115;DHT22;6121;49.810;6.418;2022-09-09T13:08:10;23.00;96.60
12115;DHT22;6121;49.810;6.418;2022-09-09T13:11:01;23.00;96.90
12115;DHT22;6121;49.810;6.418;2022-09-09T13:13:32;22.60;96.80
12115;DHT22;6121;49.810;6.418;2022-09-09T13:16:00;22.60;97.90
12115;DHT22;6121;49.810;6.418;2022-09-09T13:18:37;22.70;98.70
12115;DHT22;6121;49.810;6.418;2022-09-09T13:21:06;22.80;98.80
12115;DHT22;6121;49.810;6.418;2022-09-09T13:23:36;22.80;98.50
12115;DHT22;6121;49.810;6.418;2022-09-09T13:26:05;22.80;98.80
12115;DHT22;6121;49.810;6.418;2022-09-09T13:28:33;22.70;99.80
12115;DHT22;6121;49.810;6.418;2022-09-09T13:31:02;22.70;99.70
12115;DHT22;6121;49.810;6.418;2022-09-09T13:33:33;22.50;99.90
12115;DHT22;6121;49.810;6.418;2022-09-09T13:36:05;22.30;99.90
12115;DHT22;6121;49.810;6.418;2022-09-09T13:38:37;22.30;99.90
12115;DHT22;6121;49.810;6.418;2022-09-09T13:41:06;22.30;99.90
12115;DHT22;6121;49.810;6.418;2022-09-09T13:43:52;22.20;99.90
12115;DHT22;6121;49.810;6.418;2022-09-09T13:46:37;21.80;99.90
12115;DHT22;6121;49.810;6.418;2022-09-09T13:54:06;20.80;99.90
12115;DHT22;6121;49.810;6.418;2022-09-09T13:56:36;20.10;99.90
12115;DHT22;6121;49.810;6.418;2022-09-09T13:59:04;20.00;99.90
12115;DHT22;6121;49.810;6.418;2022-09-09T14:01:30;19.90;99.90
12115;DHT22;6121;49.810;6.418;2022-09-09T14:03:57;19.90;99.90
12115;DHT22;6121;49.810;6.418;2022-09-09T14:06:23;19.80;99.90
12115;DHT22;6121;49.810;6.418;2022-09-09T14:08:50;19.80;99.90
12115;DHT22;6121;49.810;6.418;2022-09-09T14:11:16;19.60;99.90
12115;DHT22;6121;49.810;6.418;2022-09-09T14:13:42;19.40;99.90
12115;DHT22;6121;49.810;6.418;2022-09-09T14:16:08;19.30;99.90
12115;DHT22;6121;49.810;6.418;2022-09-09T14:18:33;19.30;99.90
12115;DHT22;6121;49.810;6.418;2022-09-09T14:20:59;19.20;99.90
12115;DHT22;6121;49.810;6.418;2022-09-09T14:23:25;19.10;99.90
12115;DHT22;6121;49.810;6.418;2022-09-09T14:25:51;18.90;99.90
12115;DHT22;6121;49.810;6.418;2022-09-09T14:28:17;18.80;99.90
12115;DHT22;6121;49.810;6.418;2022-09-09T14:30:43;18.90;99.90
12115;DHT22;6121;49.810;6.418;2022-09-09T14:33:14;18.70;99.90
12115;DHT22;6121;49.810;6.418;2022-09-09T14:35:41;18.70;99.90
12115;DHT22;6121;49.810;6.418;2022-09-09T14:38:07;18.70;99.90
12115;DHT22;6121;49.810;6.418;2022-09-09T14:40:34;18.50;99.90
12115;DHT22;6121;49.810;6.418;2022-09-09T14:43:00;18.60;99.90
12115;DHT22;6121;49.810;6.418;2022-09-09T14:45:26;18.80;99.90
12115;DHT22;6121;49.810;6.418;2022-09-09T14:47:52;18.90;99.90
12115;DHT22;6121;49.810;6.418;2022-09-09T14:50:19;19.10;99.90
12115;DHT22;6121;49.810;6.418;2022-09-09T14:52:45;19.20;99.90
12115;DHT22;6121;49.810;6.418;2022-09-09T14:55:10;19.10;99.90
12115;DHT22;6121;49.810;6.418;2022-09-09T14:57:36;19.20;99.90
12115;DHT22;6121;49.810;6.418;2022-09-09T15:00:06;19.20;99.90
12115;DHT22;6121;49.810;6.418;2022-09-09T15:02:32;19.20;99.90
12115;DHT22;6121;49.810;6.418;2022-09-09T15:05:00;19.20;99.90
12115;DHT22;6121;49.810;6.418;2022-09-09T15:07:27;19.40;99.90
12115;DHT22;6121;49.810;6.418;2022-09-09T15:09:54;19.20;99.90
12115;DHT22;6121;49.810;6.418;2022-09-09T15:12:20;19.40;99.90
12115;DHT22;6121;49.810;6.418;2022-09-09T15:14:46;19.10;99.90
12115;DHT22;6121;49.810;6.418;2022-09-09T15:17:13;19.20;99.90
12115;DHT22;6121;49.810;6.418;2022-09-09T15:19:39;19.20;99.90
12115;DHT22;6121;49.810;6.418;2022-09-09T15:22:05;19.20;99.90
12115;DHT22;6121;49.810;6.418;2022-09-09T15:24:34;19.10;99.90
12115;DHT22;6121;49.810;6.418;2022-09-09T15:27:00;19.10;99.90
12115;DHT22;6121;49.810;6.418;2022-09-09T15:29:26;18.80;99.90
12115;DHT22;6121;49.810;6.418;2022-09-09T15:31:53;18.80;99.90
12115;DHT22;6121;49.810;6.418;2022-09-09T15:34:19;18.90;99.90
12115;DHT22;6121;49.810;6.418;2022-09-09T15:36:45;18.70;99.90
12115;DHT22;6121;49.810;6.418;2022-09-09T15:39:13;18.70;99.90
12115;DHT22;6121;49.810;6.418;2022-09-09T15:41:44;18.70;99.90
12115;DHT22;6121;49.810;6.418;2022-09-09T15:44:11;18.40;99.90
12115;DHT22;6121;49.810;6.418;2022-09-09T15:46:49;18.40;99.90
12115;DHT22;6121;49.810;6.418;2022-09-09T15:49:20;18.30;99.90
12115;DHT22;6121;49.810;6.418;2022-09-09T15:51:54;18.30;99.90
12115;DHT22;6121;49.810;6.418;2022-09-09T15:54:21;18.40;99.90
12115;DHT22;6121;49.810;6.418;2022-09-09T15:56:56;18.30;99.90
12115;DHT22;6121;49.810;6.418;2022-09-09T15:59:22;18.50;99.90
12115;DHT22;6121;49.810;6.418;2022-09-09T16:01:48;18.50;99.90
12115;DHT22;6121;49.810;6.418;2022-09-09T16:04:17;18.50;99.90
12115;DHT22;6121;49.810;6.418;2022-09-09T16:06:52;18.50;99.90
12115;DHT22;6121;49.810;6.418;2022-09-09T16:09:18;18.60;99.90
12115;DHT22;6121;49.810;6.418;2022-09-09T16:11:44;18.50;99.90
12115;DHT22;6121;49.810;6.418;2022-09-09T16:14:09;18.40;99.90
12115;DHT22;6121;49.810;6.418;2022-09-09T16:16:36;18.20;99.90
12115;DHT22;6121;49.810;6.418;2022-09-09T16:19:05;18.10;99.90
12115;DHT22;6121;49.810;6.418;2022-09-09T16:21:36;18.20;99.90
12115;DHT22;6121;49.810;6.418;2022-09-09T16:24:03;18.20;99.90
12115;DHT22;6121;49.810;6.418;2022-09-09T16:26:31;18.10;99.90
12115;DHT22;6121;49.810;6.418;2022-09-09T16:28:58;18.20;99.90
12115;DHT22;6121;49.810;6.418;2022-09-09T16:31:26;18.20;99.90
12115;DHT22;6121;49.810;6.418;2022-09-09T16:33:52;18.20;99.90
12115;DHT22;6121;49.810;6.418;2022-09-09T16:36:20;18.30;99.90
12115;DHT22;6121;49.810;6.418;2022-09-09T16:38:46;18.30;99.90
12115;DHT22;6121;49.810;6.418;2022-09-09T16:41:13;18.30;99.90
12115;DHT22;6121;49.810;6.418;2022-09-09T16:43:40;18.30;99.90
12115;DHT22;6121;49.810;6.418;2022-09-09T16:46:17;18.30;99.90
12115;DHT22;6121;49.810;6.418;2022-09-09T16:48:44;18.30;99.90
12115;DHT22;6121;49.810;6.418;2022-09-09T16:51:15;18.50;99.90
12115;DHT22;6121;49.810;6.418;2022-09-09T16:53:42;18.50;99.90
12115;DHT22;6121;49.810;6.418;2022-09-09T16:56:16;18.50;99.90
12115;DHT22;6121;49.810;6.418;2022-09-09T16:58:42;18.60;99.90
12115;DHT22;6121;49.810;6.418;2022-09-09T17:01:09;18.80;99.90
12115;DHT22;6121;49.810;6.418;2022-09-09T17:03:39;18.90;99.90
12115;DHT22;6121;49.810;6.418;2022-09-09T17:06:12;18.80;99.90
12115;DHT22;6121;49.810;6.418;2022-09-09T17:08:39;18.80;99.90
12115;DHT22;6121;49.810;6.418;2022-09-09T17:11:17;18.90;99.90
12115;DHT22;6121;49.810;6.418;2022-09-09T17:13:46;18.90;99.90
12115;DHT22;6121;49.810;6.418;2022-09-09T17:16:14;19.00;99.90
12115;DHT22;6121;49.810;6.418;2022-09-09T17:18:40;18.90;99.90
12115;DHT22;6121;49.810;6.418;2022-09-09T17:21:08;18.90;99.90
12115;DHT22;6121;49.810;6.418;2022-09-09T17:23:35;18.80;99.90
12115;DHT22;6121;49.810;6.418;2022-09-09T17:26:07;18.80;99.90
12115;DHT22;6121;49.810;6.418;2022-09-09T17:28:37;18.70;99.90
12115;DHT22;6121;49.810;6.418;2022-09-09T17:31:05;18.70;99.90
12115;DHT22;6121;49.810;6.418;2022-09-09T17:33:33;18.60;99.90
12115;DHT22;6121;49.810;6.418;2022-09-09T17:36:02;18.50;99.90
12115;DHT22;6121;49.810;6.418;2022-09-09T17:38:31;18.40;99.90
12115;DHT22;6121;49.810;6.418;2022-09-09T17:41:24;18.30;99.90
12115;DHT22;6121;49.810;6.418;2022-09-09T17:43:50;18.20;99.90
12115;DHT22;6121;49.810;6.418;2022-09-09T17:46:18;18.10;99.90
12115;DHT22;6121;49.810;6.418;2022-09-09T17:48:49;18.20;99.90
12115;DHT22;6121;49.810;6.418;2022-09-09T17:51:17;18.30;99.90
12115;DHT22;6121;49.810;6.418;2022-09-09T17:53:47;18.20;99.90
12115;DHT22;6121;49.810;6.418;2022-09-09T17:56:15;18.10;99.90
12115;DHT22;6121;49.810;6.418;2022-09-09T17:58:41;18.10;99.90
12115;DHT22;6121;49.810;6.418;2022-09-09T18:01:18;18.00;99.90
12115;DHT22;6121;49.810;6.418;2022-09-09T18:03:45;17.90;99.90
12115;DHT22;6121;49.810;6.418;2022-09-09T18:06:21;17.90;99.90
12115;DHT22;6121;49.810;6.418;2022-09-09T18:08:52;17.90;99.90
12115;DHT22;6121;49.810;6.418;2022-09-09T18:11:20;18.00;99.90